Time;durP1;ratioP1;P1;durP2;ratioP2;P2;SDS_P1;SDS_P2;PMS_P1;PMS_P2;Temp;Humidity;BMP_temperature;BMP_pressure;BME280_temperature;BME280_humidity;BME280_pressure;Samples;Min_cycle;Max_cycle;Signal;HPM_P1;HPM_P2
2024/02/11 00:02:05;;;;;;;48.53;37.40;;;10.70;1.00;;;;;;5107716;27;20450;-72
2024/02/11 00:04:32;;;;;;;46.10;37.17;;;10.80;1.00;;;;;;5111625;27;20538;-76
2024/02/11 00:06:59;;;;;;;42.00;37.10;;;10.70;1.00;;;;;;5107654;27;20462;-76
2024/02/11 00:09:28;;;;;;;47.10;36.97;;;10.70;1.00;;;;;;5105228;27;20960;-74
2024/02/11 00:11:55;;;;;;;42.47;35.13;;;10.70;1.00;;;;;;5107799;27;20488;-75
2024/02/11 00:14:22;;;;;;;47.50;37.00;;;10.60;1.00;;;;;;5107075;27;20490;-75
2024/02/11 00:16:49;;;;;;;45.30;38.80;;;10.60;1.00;;;;;;5109043;27;20459;-75
2024/02/11 00:19:16;;;;;;;46.20;38.43;;;10.60;1.00;;;;;;5110223;27;20519;-76
2024/02/11 00:21:43;;;;;;;45.20;38.03;;;10.60;1.00;;;;;;5109557;27;20545;-74
2024/02/11 00:24:10;;;;;;;42.00;36.23;;;10.60;1.00;;;;;;5109479;27;20501;-74
2024/02/11 00:26:41;;;;;;;47.23;36.70;;;10.70;1.00;;;;;;5111493;27;20468;-76
2024/02/11 00:29:07;;;;;;;52.10;39.20;;;10.70;1.00;;;;;;5106535;27;20489;-75
2024/02/11 00:31:35;;;;;;;42.27;37.67;;;10.70;1.00;;;;;;5108955;27;20970;-75
2024/02/11 00:34:04;;;;;;;46.70;37.73;;;10.70;1.00;;;;;;5109341;27;20473;-75
2024/02/11 00:36:31;;;;;;;47.10;38.90;;;10.70;1.00;;;;;;5108757;27;20461;-76
2024/02/11 00:38:58;;;;;;;47.50;39.27;;;10.80;1.00;;;;;;5110127;27;20489;-75
2024/02/11 00:41:28;;;;;;;50.37;39.37;;;10.70;1.00;;;;;;5108221;27;20515;-75
2024/02/11 00:43:57;;;;;;;52.07;41.37;;;10.70;1.00;;;;;;5108274;27;20494;-74
2024/02/11 00:46:24;;;;;;;54.40;40.87;;;10.70;1.00;;;;;;5108721;27;20644;-75
2024/02/11 00:48:52;;;;;;;48.50;39.67;;;10.60;1.00;;;;;;5108807;27;20539;-76
2024/02/11 00:51:19;;;;;;;52.83;40.70;;;10.60;1.00;;;;;;5108852;27;20465;-74
2024/02/11 00:53:48;;;;;;;57.80;41.60;;;10.50;1.00;;;;;;5109196;27;20462;-75
2024/02/11 00:56:15;;;;;;;57.67;41.13;;;10.50;1.00;;;;;;5107824;27;20446;-75
2024/02/11 00:58:42;;;;;;;52.67;41.77;;;10.50;1.00;;;;;;5110146;27;20497;-76
2024/02/11 01:01:10;;;;;;;57.07;41.03;;;10.40;1.00;;;;;;5109510;27;20532;-76
2024/02/11 01:03:37;;;;;;;55.93;41.90;;;10.40;1.00;;;;;;5108513;27;20992;-76
2024/02/11 01:06:04;;;;;;;56.40;42.70;;;10.50;1.00;;;;;;5105784;27;20536;-75
2024/02/11 01:08:31;;;;;;;59.97;41.27;;;10.40;1.00;;;;;;5109263;27;20549;-75
2024/02/11 01:10:58;;;;;;;58.80;43.80;;;10.40;1.00;;;;;;5106192;27;20516;-75
2024/02/11 01:13:26;;;;;;;60.23;44.30;;;10.40;1.00;;;;;;5108721;27;20465;-73
2024/02/11 01:15:53;;;;;;;57.27;43.43;;;10.40;1.00;;;;;;5103402;27;20450;-73
2024/02/11 01:18:21;;;;;;;59.30;44.27;;;10.40;1.00;;;;;;5105689;27;20511;-73
2024/02/11 01:20:50;;;;;;;57.37;42.07;;;10.40;1.00;;;;;;5106703;27;20519;-73
2024/02/11 01:23:18;;;;;;;57.63;42.93;;;10.40;1.00;;;;;;5106981;27;20481;-77
2024/02/11 01:25:45;;;;;;;62.27;44.00;;;10.30;1.00;;;;;;5106844;27;20456;-73
2024/02/11 01:28:12;;;;;;;59.60;41.70;;;10.30;1.00;;;;;;5105640;27;20944;-72
2024/02/11 01:30:39;;;;;;;59.53;44.57;;;10.20;1.00;;;;;;5108268;28;20529;-72
2024/02/11 01:33:09;;;;;;;59.67;42.90;;;10.20;1.00;;;;;;5106474;27;21219;-71
2024/02/11 01:35:39;;;;;;;56.93;41.50;;;10.10;1.00;;;;;;5109394;27;20541;-72
2024/02/11 01:38:07;;;;;;;60.73;43.47;;;10.10;1.00;;;;;;5108010;27;20469;-71
2024/02/11 01:40:34;;;;;;;60.73;44.63;;;10.20;1.00;;;;;;5107821;27;20454;-72
2024/02/11 01:43:07;;;;;;;61.73;42.83;;;10.10;1.00;;;;;;5107565;27;20476;-71
2024/02/11 01:45:35;;;;;;;57.27;44.00;;;10.20;1.00;;;;;;5105551;27;21080;-72
2024/02/11 01:48:04;;;;;;;61.20;43.40;;;10.10;1.00;;;;;;5106770;27;20458;-73
2024/02/11 01:50:34;;;;;;;63.03;42.20;;;10.10;1.00;;;;;;5106593;28;20473;-74
2024/02/11 01:53:03;;;;;;;56.10;41.70;;;10.10;1.00;;;;;;5107241;27;20596;-73
2024/02/11 01:55:31;;;;;;;61.63;42.63;;;10.00;1.00;;;;;;5108080;27;20482;-72
2024/02/11 01:57:59;;;;;;;58.47;40.60;;;10.10;1.00;;;;;;5106241;27;20465;-72
2024/02/11 02:00:27;;;;;;;57.03;42.40;;;10.10;1.00;;;;;;5104790;27;20455;-72
2024/02/11 02:02:57;;;;;;;60.73;41.93;;;10.10;1.00;;;;;;5106004;27;20461;-72
2024/02/11 02:05:24;;;;;;;55.30;39.57;;;10.10;1.00;;;;;;5105580;27;20442;-71
2024/02/11 02:07:54;;;;;;;70.47;42.20;;;10.00;1.00;;;;;;5103819;27;20478;-71
2024/02/11 02:10:22;;;;;;;58.03;42.63;;;10.00;1.00;;;;;;5106471;27;20461;-72
2024/02/11 02:12:49;;;;;;;61.37;44.87;;;10.00;1.00;;;;;;5107510;27;20505;-72
2024/02/11 02:15:16;;;;;;;63.33;42.13;;;9.90;1.00;;;;;;5100501;27;20878;-73
2024/02/11 02:17:46;;;;;;;65.20;41.03;;;9.90;1.00;;;;;;5104634;27;20564;-72
2024/02/11 02:20:14;;;;;;;56.37;40.20;;;9.90;1.00;;;;;;5105105;27;20498;-73
2024/02/11 02:22:43;;;;;;;59.90;40.57;;;9.90;1.00;;;;;;5107260;27;20462;-73
2024/02/11 02:25:10;;;;;;;61.03;42.17;;;9.90;1.00;;;;;;5107565;27;20545;-77
2024/02/11 02:27:38;;;;;;;62.30;43.70;;;9.80;1.00;;;;;;5105313;28;20457;-76
2024/02/11 02:30:08;;;;;;;52.60;40.63;;;9.80;1.00;;;;;;5108759;27;20504;-76
2024/02/11 02:32:36;;;;;;;61.70;41.80;;;9.80;1.00;;;;;;5106157;27;20505;-76
2024/02/11 02:35:03;;;;;;;59.07;39.67;;;9.90;1.00;;;;;;5105159;27;20525;-76
2024/02/11 02:37:30;;;;;;;56.57;39.70;;;9.90;1.00;;;;;;5108798;27;20461;-74
2024/02/11 02:39:59;;;;;;;61.10;41.70;;;9.90;1.00;;;;;;5107106;27;20442;-75
2024/02/11 02:42:26;;;;;;;50.77;39.03;;;9.90;1.00;;;;;;5103055;27;21198;-75
2024/02/11 02:44:53;;;;;;;57.97;41.10;;;9.90;1.00;;;;;;5106406;27;20458;-76
2024/02/11 02:47:20;;;;;;;55.80;40.60;;;9.90;1.00;;;;;;5102509;27;20523;-75
2024/02/11 02:49:47;;;;;;;60.10;38.90;;;9.90;1.00;;;;;;5103298;27;20540;-75
2024/02/11 02:52:14;;;;;;;58.40;41.47;;;9.90;1.00;;;;;;5105370;27;20444;-74
2024/02/11 02:54:43;;;;;;;58.93;40.30;;;9.80;1.00;;;;;;5084009;27;20460;-74
2024/02/11 02:57:12;;;;;;;58.00;41.17;;;9.90;1.00;;;;;;5102821;27;20471;-74
2024/02/11 02:59:39;;;;;;;52.73;39.57;;;9.90;1.00;;;;;;5103113;27;20458;-75
2024/02/11 03:02:07;;;;;;;55.30;38.07;;;9.90;1.00;;;;;;5103076;27;20490;-75
2024/02/11 03:04:37;;;;;;;56.70;40.33;;;9.80;1.00;;;;;;5102629;27;20473;-75
2024/02/11 03:07:06;;;;;;;60.90;40.60;;;9.80;1.00;;;;;;5106091;27;20523;-74
2024/02/11 03:09:34;;;;;;;65.23;40.83;;;9.80;1.00;;;;;;5109882;27;20543;-75
2024/02/11 03:12:01;;;;;;;62.00;40.40;;;9.70;1.00;;;;;;5109082;27;21214;-76
2024/02/11 03:14:31;;;;;;;65.43;41.40;;;9.70;1.00;;;;;;5106538;27;20532;-75
2024/02/11 03:16:58;;;;;;;59.77;40.57;;;9.80;1.00;;;;;;5106236;27;21012;-75
2024/02/11 03:19:25;;;;;;;57.20;39.23;;;9.80;1.00;;;;;;5106339;27;20458;-74
2024/02/11 03:21:52;;;;;;;57.20;41.17;;;9.80;1.00;;;;;;5107339;27;21293;-74
2024/02/11 03:24:19;;;;;;;61.47;42.40;;;9.80;1.00;;;;;;5108077;27;20527;-74
2024/02/11 03:26:46;;;;;;;58.77;41.40;;;9.80;1.00;;;;;;5109019;27;20969;-74
2024/02/11 03:29:14;;;;;;;66.00;41.97;;;9.80;1.00;;;;;;5107969;27;20466;-75
2024/02/11 03:31:42;;;;;;;59.93;41.83;;;9.80;1.00;;;;;;5111997;27;20465;-75
2024/02/11 03:34:09;;;;;;;67.03;41.47;;;9.80;1.00;;;;;;5106667;27;20485;-75
2024/02/11 03:36:36;;;;;;;57.43;39.10;;;9.80;1.00;;;;;;5112171;27;20480;-75
2024/02/11 03:39:08;;;;;;;61.83;38.40;;;9.80;1.00;;;;;;5107767;27;20458;-75
2024/02/11 03:41:35;;;;;;;60.20;40.70;;;9.80;1.00;;;;;;5111439;27;20993;-74
2024/02/11 03:44:04;;;;;;;58.17;38.90;;;9.80;1.00;;;;;;5110372;27;20476;-73
2024/02/11 03:46:30;;;;;;;56.30;38.10;;;9.80;1.00;;;;;;5110632;27;20450;-74
2024/02/11 03:48:59;;;;;;;57.93;37.77;;;9.80;1.00;;;;;;5111748;27;21129;-76
2024/02/11 03:51:26;;;;;;;57.83;37.47;;;9.80;1.00;;;;;;5109491;27;20567;-75
2024/02/11 03:53:53;;;;;;;53.73;38.47;;;9.70;1.00;;;;;;5108046;27;20531;-75
2024/02/11 03:56:25;;;;;;;55.90;37.73;;;9.80;1.00;;;;;;5108934;27;20472;-76
2024/02/11 03:58:52;;;;;;;58.40;38.70;;;9.80;1.00;;;;;;5106109;27;20496;-75
2024/02/11 04:01:19;;;;;;;60.87;38.80;;;9.70;1.00;;;;;;5105231;27;20555;-75
2024/02/11 04:03:46;;;;;;;51.77;37.27;;;9.70;1.00;;;;;;5110900;27;20457;-74
2024/02/11 04:06:16;;;;;;;58.80;39.47;;;9.70;1.00;;;;;;5102882;27;20450;-74
2024/02/11 04:08:43;;;;;;;55.27;37.83;;;9.70;1.00;;;;;;5109782;27;20450;-76
2024/02/11 04:11:11;;;;;;;53.33;38.07;;;9.70;1.00;;;;;;5110687;27;20477;-76
2024/02/11 04:13:38;;;;;;;52.60;37.67;;;9.70;1.00;;;;;;5106986;27;20984;-75
2024/02/11 04:16:11;;;;;;;53.63;36.37;;;9.70;1.00;;;;;;5106686;27;20485;-75
2024/02/11 04:18:38;;;;;;;57.43;37.70;;;9.70;1.00;;;;;;5109220;27;20566;-73
2024/02/11 04:21:05;;;;;;;57.00;35.87;;;9.70;1.00;;;;;;5107025;27;20473;-74
2024/02/11 04:23:34;;;;;;;53.63;37.30;;;9.70;1.00;;;;;;5108909;27;20555;-74
2024/02/11 04:26:07;;;;;;;54.47;36.87;;;9.70;1.00;;;;;;5107753;27;20454;-75
2024/02/11 04:28:35;;;;;;;55.77;39.03;;;9.70;1.00;;;;;;5108616;27;20545;-75
2024/02/11 04:31:08;;;;;;;60.23;38.73;;;9.60;1.00;;;;;;5110276;27;20462;-75
2024/02/11 04:33:38;;;;;;;58.67;39.70;;;9.70;1.00;;;;;;5104586;27;21073;-74
2024/02/11 04:36:06;;;;;;;59.17;37.87;;;9.60;1.00;;;;;;5108057;27;20537;-74
2024/02/11 04:38:35;;;;;;;57.63;37.90;;;9.60;1.00;;;;;;5111117;27;21297;-75
2024/02/11 04:41:02;;;;;;;49.77;36.50;;;9.60;1.00;;;;;;5110108;27;20461;-74
2024/02/11 04:43:29;;;;;;;56.20;37.53;;;9.70;1.00;;;;;;5107775;27;20453;-75
2024/02/11 04:45:56;;;;;;;51.40;37.30;;;9.70;1.00;;;;;;5110203;27;20976;-75
2024/02/11 04:48:24;;;;;;;53.40;36.90;;;9.70;1.00;;;;;;5107859;27;20460;-75
2024/02/11 04:50:52;;;;;;;60.50;38.43;;;9.80;1.00;;;;;;5105934;27;21090;-74
2024/02/11 04:53:20;;;;;;;53.47;36.47;;;9.70;1.00;;;;;;5106598;27;20504;-75
2024/02/11 04:55:50;;;;;;;56.63;36.80;;;9.70;1.00;;;;;;5106169;27;20450;-75
2024/02/11 04:58:19;;;;;;;54.40;36.70;;;9.70;1.00;;;;;;5106127;27;20470;-75
2024/02/11 05:00:49;;;;;;;56.20;35.57;;;9.80;1.00;;;;;;5105379;27;20500;-74
2024/02/11 05:03:18;;;;;;;54.30;36.00;;;9.80;1.00;;;;;;5104732;27;20462;-76
2024/02/11 05:05:46;;;;;;;55.93;37.03;;;9.80;1.00;;;;;;5102046;27;20531;-75
2024/02/11 05:08:17;;;;;;;51.93;36.33;;;9.80;1.00;;;;;;5107868;27;20465;-73
2024/02/11 05:10:45;;;;;;;54.10;38.03;;;9.80;1.00;;;;;;5105342;27;20493;-74
2024/02/11 05:13:15;;;;;;;52.30;36.50;;;9.70;1.00;;;;;;5108795;27;21371;-75
2024/02/11 05:15:43;;;;;;;58.07;39.43;;;9.70;1.00;;;;;;5109536;27;20479;-74
2024/02/11 05:18:12;;;;;;;61.60;40.17;;;9.60;1.00;;;;;;5108270;27;20465;-75
2024/02/11 05:20:41;;;;;;;57.73;38.10;;;9.60;1.00;;;;;;5106806;27;20449;-75
2024/02/11 05:23:10;;;;;;;54.43;38.17;;;9.60;1.00;;;;;;5104759;27;20453;-75
2024/02/11 05:25:38;;;;;;;61.60;42.90;;;9.60;1.00;;;;;;5108906;27;20466;-75
2024/02/11 05:28:09;;;;;;;56.10;38.53;;;9.60;1.00;;;;;;5107335;27;20461;-75
2024/02/11 05:30:42;;;;;;;60.33;38.00;;;9.60;1.00;;;;;;5110769;27;20480;-74
2024/02/11 05:33:10;;;;;;;56.37;38.63;;;9.60;1.00;;;;;;5108750;27;21159;-75
2024/02/11 05:35:38;;;;;;;55.20;36.03;;;9.50;1.00;;;;;;5110567;27;20457;-74
2024/02/11 05:38:08;;;;;;;57.87;37.63;;;9.50;1.00;;;;;;5108361;27;20461;-74
2024/02/11 05:40:41;;;;;;;60.40;38.50;;;9.40;1.00;;;;;;5104040;27;21224;-75
2024/02/11 05:43:08;;;;;;;62.30;35.17;;;9.50;1.00;;;;;;5108102;27;20958;-74
2024/02/11 05:45:38;;;;;;;56.20;38.03;;;9.50;1.00;;;;;;5108233;27;20468;-75
2024/02/11 05:48:05;;;;;;;56.63;36.37;;;9.50;1.00;;;;;;5108296;27;20458;-75
2024/02/11 05:50:34;;;;;;;51.73;37.63;;;9.50;1.00;;;;;;5109351;27;20525;-74
2024/02/11 05:53:01;;;;;;;58.67;38.00;;;9.50;1.00;;;;;;5108166;27;20585;-77
2024/02/11 05:55:28;;;;;;;60.57;37.90;;;9.50;1.00;;;;;;5107828;27;20537;-71
2024/02/11 05:57:56;;;;;;;59.93;37.40;;;9.40;1.00;;;;;;5108910;27;20454;-71
2024/02/11 06:00:24;;;;;;;55.67;36.70;;;9.40;1.00;;;;;;5107288;27;20863;-73
2024/02/11 06:02:54;;;;;;;57.37;37.70;;;9.40;1.00;;;;;;5103247;27;20452;-72
2024/02/11 06:05:22;;;;;;;58.47;39.00;;;9.30;1.00;;;;;;5104879;27;20442;-71
2024/02/11 06:07:51;;;;;;;61.37;42.03;;;9.40;1.00;;;;;;5108281;27;20469;-69
2024/02/11 06:10:20;;;;;;;56.27;37.93;;;9.30;1.00;;;;;;5109460;27;20972;-73
2024/02/11 06:12:48;;;;;;;60.30;37.60;;;9.30;1.00;;;;;;5109879;27;20449;-71
2024/02/11 06:15:20;;;;;;;61.70;39.97;;;9.30;1.00;;;;;;5105506;27;20486;-71
2024/02/11 06:17:47;;;;;;;60.50;37.10;;;9.40;1.00;;;;;;5108426;27;20465;-72
2024/02/11 06:20:18;;;;;;;62.27;39.43;;;9.30;1.00;;;;;;5107045;27;21128;-71
2024/02/11 06:22:46;;;;;;;60.20;38.20;;;9.30;1.00;;;;;;5105937;27;20452;-72
2024/02/11 06:25:14;;;;;;;59.50;39.00;;;9.30;1.00;;;;;;5106187;27;20484;-76
2024/02/11 06:27:41;;;;;;;50.77;36.83;;;9.30;1.00;;;;;;5108335;27;20549;-73
2024/02/11 06:30:12;;;;;;;57.63;40.13;;;9.30;1.00;;;;;;5102785;27;20430;-71
2024/02/11 06:32:39;;;;;;;62.67;37.40;;;9.30;1.00;;;;;;5104825;27;20458;-72
2024/02/11 06:35:09;;;;;;;65.17;40.37;;;9.20;1.00;;;;;;5102748;27;20466;-73
2024/02/11 06:37:37;;;;;;;66.97;39.40;;;9.20;1.00;;;;;;5107102;27;20487;-72
2024/02/11 06:40:06;;;;;;;62.17;37.80;;;9.20;1.00;;;;;;5105904;27;20469;-74
2024/02/11 06:42:35;;;;;;;71.30;39.90;;;9.10;1.00;;;;;;5105600;27;21157;-73
2024/02/11 06:45:02;;;;;;;68.87;39.17;;;9.10;1.00;;;;;;5109784;27;20453;-74
2024/02/11 06:47:30;;;;;;;59.43;38.40;;;9.10;1.00;;;;;;5108535;27;20454;-75
2024/02/11 06:49:58;;;;;;;63.33;40.33;;;9.00;1.00;;;;;;5107871;27;20496;-73
2024/02/11 06:52:26;;;;;;;61.13;37.10;;;9.00;1.00;;;;;;5109227;27;20458;-73
2024/02/11 06:54:54;;;;;;;57.40;36.03;;;9.10;1.00;;;;;;5110126;27;20449;-72
2024/02/11 06:57:22;;;;;;;58.10;38.43;;;9.10;1.00;;;;;;5108035;27;21164;-71
2024/02/11 06:59:49;;;;;;;57.30;36.30;;;9.10;1.00;;;;;;5109551;27;20497;-72
2024/02/11 07:02:16;;;;;;;62.33;38.03;;;9.10;1.00;;;;;;5106519;27;20472;-71
2024/02/11 07:04:43;;;;;;;60.43;39.10;;;9.10;1.00;;;;;;5107132;27;20584;-74
2024/02/11 07:07:10;;;;;;;64.77;39.00;;;9.10;1.00;;;;;;5110614;27;20460;-74
2024/02/11 07:09:37;;;;;;;61.20;38.23;;;9.10;1.00;;;;;;5107120;27;20993;-75
2024/02/11 07:12:06;;;;;;;60.87;38.20;;;9.10;1.00;;;;;;5108981;27;20450;-75
2024/02/11 07:14:34;;;;;;;63.93;38.03;;;9.10;1.00;;;;;;5107718;27;20581;-73
2024/02/11 07:17:01;;;;;;;59.90;37.57;;;9.10;1.00;;;;;;5108123;27;20458;-75
2024/02/11 07:19:29;;;;;;;57.13;34.77;;;9.20;1.00;;;;;;5104927;27;20523;-75
2024/02/11 07:21:57;;;;;;;61.13;39.30;;;9.20;1.00;;;;;;5108473;27;20457;-75
2024/02/11 07:24:24;;;;;;;58.47;35.97;;;9.20;1.00;;;;;;5109316;27;20465;-74
2024/02/11 07:26:51;;;;;;;62.27;36.70;;;9.20;1.00;;;;;;5111056;27;20461;-74
2024/02/11 07:29:20;;;;;;;57.20;36.83;;;9.20;1.00;;;;;;5109306;27;20468;-75
2024/02/11 07:31:47;;;;;;;57.60;37.13;;;9.10;1.00;;;;;;5098793;27;20453;-74
2024/02/11 07:34:15;;;;;;;59.90;35.47;;;9.20;1.00;;;;;;5107845;27;20460;-74
2024/02/11 07:36:42;;;;;;;52.50;34.57;;;9.30;1.00;;;;;;5109224;27;20541;-74
2024/02/11 07:39:15;;;;;;;60.07;36.27;;;9.30;1.00;;;;;;5105134;27;20565;-74
2024/02/11 07:41:42;;;;;;;54.27;35.70;;;9.30;1.00;;;;;;5106967;27;20491;-75
2024/02/11 07:44:10;;;;;;;58.43;37.00;;;9.30;1.00;;;;;;5108571;27;20485;-75
2024/02/11 07:46:38;;;;;;;56.07;37.93;;;9.30;1.00;;;;;;5096801;27;20421;-75
2024/02/11 07:49:05;;;;;;;57.93;36.63;;;9.30;1.00;;;;;;5105973;27;20969;-75
2024/02/11 07:51:32;;;;;;;58.70;36.03;;;9.30;1.00;;;;;;5106093;27;20451;-74
2024/02/11 07:54:00;;;;;;;53.60;34.87;;;9.40;1.00;;;;;;5108413;27;20537;-73
2024/02/11 07:56:27;;;;;;;64.77;37.77;;;9.40;1.00;;;;;;5106601;27;20464;-75
2024/02/11 07:58:54;;;;;;;57.37;36.00;;;9.40;1.00;;;;;;5108791;27;20985;-76
2024/02/11 08:01:21;;;;;;;56.80;37.70;;;9.40;1.00;;;;;;5104684;27;20453;-74
2024/02/11 08:03:50;;;;;;;61.20;37.70;;;9.30;1.00;;;;;;5110813;27;20838;-76
2024/02/11 08:06:17;;;;;;;58.67;37.10;;;9.30;1.00;;;;;;5107653;27;20488;-76
2024/02/11 08:08:44;;;;;;;59.00;36.77;;;9.40;1.00;;;;;;5107913;27;21061;-75
2024/02/11 08:11:11;;;;;;;56.40;35.60;;;9.50;1.00;;;;;;5109493;27;20537;-76
2024/02/11 08:13:39;;;;;;;56.20;35.77;;;9.50;1.00;;;;;;5107456;27;21037;-74
2024/02/11 08:16:11;;;;;;;56.97;36.60;;;9.50;1.00;;;;;;5107147;27;20450;-74
2024/02/11 08:18:38;;;;;;;58.07;35.33;;;9.40;1.00;;;;;;5105681;27;20500;-76
2024/02/11 08:21:09;;;;;;;59.57;36.43;;;9.40;1.00;;;;;;5108068;27;20458;-76
2024/02/11 08:23:36;;;;;;;53.77;35.43;;;9.50;1.00;;;;;;5109363;27;20451;-76
2024/02/11 08:26:03;;;;;;;56.23;36.63;;;9.50;1.00;;;;;;5107865;27;20554;-74
2024/02/11 08:28:30;;;;;;;57.90;37.27;;;9.50;1.00;;;;;;5107204;27;20541;-74
2024/02/11 08:30:57;;;;;;;56.83;36.03;;;9.50;1.00;;;;;;5107969;27;20797;-73
2024/02/11 08:33:24;;;;;;;60.63;37.33;;;9.40;1.00;;;;;;5106781;27;20725;-74
2024/02/11 08:35:52;;;;;;;61.00;36.70;;;9.40;1.00;;;;;;5107455;27;21197;-73
2024/02/11 08:38:21;;;;;;;59.00;37.17;;;9.50;1.00;;;;;;5109254;27;21339;-74
2024/02/11 08:40:48;;;;;;;58.47;35.80;;;9.50;1.00;;;;;;5106795;27;20550;-75
2024/02/11 08:43:19;;;;;;;59.97;38.40;;;9.60;1.00;;;;;;5110409;27;20969;-76
2024/02/11 08:45:46;;;;;;;61.83;38.90;;;9.60;1.00;;;;;;5106407;27;20481;-77
2024/02/11 08:48:13;;;;;;;62.60;39.77;;;9.70;1.00;;;;;;5106495;27;20462;-76
2024/02/11 08:50:40;;;;;;;55.70;36.63;;;9.70;1.00;;;;;;5110177;27;20850;-75
2024/02/11 08:53:08;;;;;;;61.43;37.23;;;9.70;1.00;;;;;;5107604;27;20944;-75
2024/02/11 08:55:37;;;;;;;63.53;38.77;;;9.70;1.00;;;;;;5111091;27;20458;-75
2024/02/11 08:58:05;;;;;;;55.73;37.10;;;9.60;1.00;;;;;;5108645;27;20501;-81
2024/02/11 09:00:32;;;;;;;59.50;36.30;;;9.60;1.00;;;;;;5079884;28;20521;-76
2024/02/11 09:02:59;;;;;;;60.03;36.30;;;9.60;1.00;;;;;;5109230;27;20462;-76
2024/02/11 09:05:26;;;;;;;54.03;34.53;;;9.70;1.00;;;;;;5107240;27;20603;-76
2024/02/11 09:07:53;;;;;;;56.40;37.20;;;9.80;1.00;;;;;;5106490;27;20576;-76
2024/02/11 09:10:21;;;;;;;59.83;38.10;;;9.80;1.00;;;;;;5108609;28;20503;-75
2024/02/11 09:12:50;;;;;;;59.27;36.60;;;9.80;1.00;;;;;;5108592;27;20478;-75
2024/02/11 09:15:18;;;;;;;61.93;37.33;;;9.80;1.00;;;;;;5108938;27;20458;-75
2024/02/11 09:17:46;;;;;;;59.97;38.27;;;9.80;1.00;;;;;;5105491;27;20469;-75
2024/02/11 09:20:14;;;;;;;52.83;37.10;;;9.80;1.00;;;;;;5105799;27;20465;-76
2024/02/11 09:22:41;;;;;;;56.33;37.60;;;9.80;1.00;;;;;;5108590;27;21152;-75
2024/02/11 09:25:11;;;;;;;59.77;37.20;;;9.90;1.00;;;;;;5087264;28;20434;-82
2024/02/11 09:27:38;;;;;;;57.90;36.47;;;10.00;1.00;;;;;;5105800;27;20489;-76
2024/02/11 09:30:11;;;;;;;52.20;36.33;;;10.00;1.00;;;;;;5108411;27;20545;-76
2024/02/11 09:32:38;;;;;;;54.27;36.50;;;9.90;1.00;;;;;;5108970;27;21088;-78
2024/02/11 09:35:05;;;;;;;52.07;37.13;;;9.90;1.00;;;;;;5108704;27;20462;-76
2024/02/11 09:37:32;;;;;;;53.20;35.27;;;9.90;1.00;;;;;;5108425;27;20501;-75
2024/02/11 09:39:59;;;;;;;61.30;38.10;;;9.90;1.00;;;;;;5109698;27;20941;-77
2024/02/11 09:42:28;;;;;;;60.27;37.20;;;9.90;1.00;;;;;;5111735;27;20453;-78
2024/02/11 09:44:58;;;;;;;53.63;35.63;;;9.90;1.00;;;;;;5108909;27;21074;-75
2024/02/11 09:47:26;;;;;;;52.97;36.37;;;9.80;1.00;;;;;;5109219;27;20497;-75
2024/02/11 09:49:56;;;;;;;54.53;36.60;;;9.80;1.00;;;;;;5107282;27;20926;-75
2024/02/11 09:52:24;;;;;;;52.20;36.50;;;9.80;1.00;;;;;;5106237;27;20510;-73
2024/02/11 09:54:53;;;;;;;53.70;36.53;;;9.70;1.00;;;;;;5106291;27;20543;-74
2024/02/11 09:57:20;;;;;;;55.30;36.80;;;9.80;1.00;;;;;;5109704;27;20481;-74
2024/02/11 09:59:47;;;;;;;51.57;36.40;;;9.80;1.00;;;;;;5106175;27;20473;-74
2024/02/11 10:02:18;;;;;;;52.00;36.13;;;9.80;1.00;;;;;;5106232;27;20495;-74
2024/02/11 10:04:47;;;;;;;53.10;36.13;;;9.90;1.00;;;;;;5109100;27;20527;-74
2024/02/11 10:07:24;;;;;;;55.20;34.70;;;9.90;1.00;;;;;;5100948;27;20538;-74
2024/02/11 10:09:51;;;;;;;45.73;32.03;;;9.90;1.00;;;;;;5107275;27;20885;-74
2024/02/11 10:12:19;;;;;;;47.13;34.43;;;9.90;1.00;;;;;;5101975;27;20849;-74
2024/02/11 10:14:57;;;;;;;48.40;34.10;;;9.90;1.00;;;;;;5107591;27;20458;-76
2024/02/11 10:17:24;;;;;;;45.77;32.50;;;10.00;1.00;;;;;;5105798;27;20477;-74
2024/02/11 10:19:53;;;;;;;42.33;30.87;;;10.10;1.00;;;;;;5112327;27;20519;-73
2024/02/11 10:22:21;;;;;;;42.73;29.70;;;10.10;1.00;;;;;;5112368;27;20457;-75
2024/02/11 10:24:49;;;;;;;43.10;31.40;;;10.10;1.00;;;;;;5113410;27;20453;-74
2024/02/11 10:27:17;;;;;;;44.60;30.77;;;10.10;1.00;;;;;;5110547;27;20480;-74
2024/02/11 10:29:45;;;;;;;44.27;30.57;;;10.10;1.00;;;;;;5110823;27;21975;-75
2024/02/11 10:32:14;;;;;;;46.83;30.30;;;10.10;1.00;;;;;;5109509;27;20949;-77
2024/02/11 10:34:43;;;;;;;38.17;30.70;;;10.20;1.00;;;;;;5110980;27;20508;-71
2024/02/11 10:37:13;;;;;;;41.33;29.00;;;10.10;1.00;;;;;;5109458;27;20475;-71
2024/02/11 10:39:42;;;;;;;35.23;28.30;;;10.10;1.00;;;;;;5107929;27;20450;-72
2024/02/11 10:42:10;;;;;;;40.20;27.67;;;10.10;1.00;;;;;;5108595;27;20474;-70
2024/02/11 10:44:39;;;;;;;40.23;29.27;;;10.10;1.00;;;;;;5108334;27;20462;-72
2024/02/11 10:47:07;;;;;;;39.70;30.30;;;10.10;1.00;;;;;;5107578;27;20461;-71
2024/02/11 10:49:39;;;;;;;37.53;27.63;;;10.20;1.00;;;;;;5108594;27;20454;-74
2024/02/11 10:52:09;;;;;;;43.53;31.40;;;10.20;1.00;;;;;;5109714;27;20444;-73
2024/02/11 10:54:41;;;;;;;44.40;29.77;;;10.10;1.00;;;;;;5111031;27;21000;-72
2024/02/11 10:57:13;;;;;;;38.83;29.27;;;10.10;1.00;;;;;;5110642;27;20968;-74
2024/02/11 10:59:47;;;;;;;43.17;30.10;;;10.10;1.00;;;;;;5088887;28;20446;-72
2024/02/11 11:02:16;;;;;;;43.17;31.57;;;10.10;1.00;;;;;;5105921;27;21033;-72
2024/02/11 11:04:46;;;;;;;46.47;30.10;;;10.10;1.00;;;;;;5108287;27;20560;-73
2024/02/11 11:07:15;;;;;;;40.63;30.17;;;10.10;1.00;;;;;;5111754;27;20488;-72
2024/02/11 11:09:45;;;;;;;39.90;30.67;;;10.10;1.00;;;;;;5109338;27;20512;-74
2024/02/11 11:12:16;;;;;;;45.97;30.63;;;10.10;1.00;;;;;;5110431;27;20465;-73
2024/02/11 11:14:44;;;;;;;39.83;29.13;;;10.20;1.00;;;;;;5099400;27;20532;-74
2024/02/11 11:17:19;;;;;;;38.77;29.03;;;10.20;1.00;;;;;;5111383;27;20523;-72
2024/02/11 11:19:50;;;;;;;39.37;30.53;;;10.30;1.00;;;;;;5110755;27;20463;-73
2024/02/11 11:22:25;;;;;;;37.10;28.13;;;10.30;1.00;;;;;;5109881;27;20544;-73
2024/02/11 11:24:55;;;;;;;40.67;28.97;;;10.40;1.00;;;;;;5112558;27;20457;-73
2024/02/11 11:27:23;;;;;;;37.50;31.50;;;10.40;1.00;;;;;;5107552;27;20475;-73
2024/02/11 11:29:50;;;;;;;41.03;30.27;;;10.40;1.00;;;;;;5085512;28;20924;-74
2024/02/11 11:32:22;;;;;;;46.37;30.07;;;10.40;1.00;;;;;;5108333;27;20476;-73
2024/02/11 11:34:50;;;;;;;40.13;29.53;;;10.40;1.00;;;;;;5109853;27;20457;-74
2024/02/11 11:37:18;;;;;;;36.20;29.43;;;10.50;1.00;;;;;;5110419;27;20488;-72
2024/02/11 11:39:45;;;;;;;39.30;30.40;;;10.50;1.00;;;;;;5109302;27;20494;-76
2024/02/11 11:42:14;;;;;;;37.03;29.37;;;10.60;1.00;;;;;;5109961;27;20944;-73
2024/02/11 11:44:41;;;;;;;45.50;31.53;;;10.60;1.00;;;;;;5109996;27;20473;-73
2024/02/11 11:47:09;;;;;;;38.80;29.97;;;10.60;1.00;;;;;;5108828;27;20552;-74
2024/02/11 11:49:37;;;;;;;45.63;30.47;;;10.50;1.00;;;;;;5110793;27;20991;-73
2024/02/11 11:52:08;;;;;;;42.57;30.63;;;10.50;1.00;;;;;;5111145;27;21032;-74
2024/02/11 11:54:35;;;;;;;42.33;30.57;;;10.50;1.00;;;;;;5110233;27;20539;-72
2024/02/11 11:57:05;;;;;;;41.10;29.60;;;10.50;1.00;;;;;;5112743;27;20558;-73
2024/02/11 11:59:36;;;;;;;41.57;31.03;;;10.40;1.00;;;;;;5108824;27;20508;-72
2024/02/11 12:02:03;;;;;;;37.97;28.83;;;10.40;1.00;;;;;;5112852;27;20458;-73
2024/02/11 12:04:36;;;;;;;40.73;29.27;;;10.40;1.00;;;;;;5104280;27;20454;-73
2024/02/11 12:07:06;;;;;;;35.87;27.90;;;10.40;1.00;;;;;;5108229;27;20466;-72
2024/02/11 12:09:34;;;;;;;38.70;29.30;;;10.40;1.00;;;;;;5106076;27;20453;-76
2024/02/11 12:12:01;;;;;;;37.73;28.70;;;10.40;1.00;;;;;;5101962;27;20869;-72
2024/02/11 12:14:29;;;;;;;37.10;28.20;;;10.30;1.00;;;;;;5104801;27;20450;-73
2024/02/11 12:16:59;;;;;;;37.07;28.20;;;10.30;1.00;;;;;;5105926;27;20473;-74
2024/02/11 12:19:26;;;;;;;35.90;28.60;;;10.30;1.00;;;;;;5106672;27;20462;-73
2024/02/11 12:21:53;;;;;;;31.30;27.67;;;10.30;1.00;;;;;;5109744;27;20546;-73
2024/02/11 12:24:21;;;;;;;40.13;28.07;;;10.20;1.00;;;;;;5107760;27;21206;-73
2024/02/11 12:26:48;;;;;;;36.27;28.70;;;10.20;1.00;;;;;;5106491;27;20549;-74
2024/02/11 12:29:24;;;;;;;35.80;26.87;;;10.20;1.00;;;;;;5107599;27;20500;-74
2024/02/11 12:31:51;;;;;;;39.80;28.70;;;10.10;1.00;;;;;;5107285;27;20490;-73
2024/02/11 12:34:24;;;;;;;32.20;26.23;;;10.10;1.00;;;;;;5110797;27;20458;-73
2024/02/11 12:36:58;;;;;;;37.40;28.27;;;10.10;1.00;;;;;;5104099;27;20477;-73
2024/02/11 12:39:26;;;;;;;35.30;27.83;;;10.30;1.00;;;;;;5109353;27;20429;-74
2024/02/11 12:41:55;;;;;;;34.40;26.83;;;10.30;1.00;;;;;;5106894;27;21342;-75
2024/02/11 12:44:22;;;;;;;29.43;23.97;;;10.40;1.00;;;;;;5105271;27;20471;-71
2024/02/11 12:46:50;;;;;;;26.93;23.40;;;10.50;1.00;;;;;;5105603;27;20459;-75
2024/02/11 12:49:17;;;;;;;32.27;25.30;;;10.60;1.00;;;;;;5100906;27;20454;-74